Time;durP1;ratioP1;P1;durP2;ratioP2;P2;SDS_P1;SDS_P2;PMS_P1;PMS_P2;Temp;Humidity;BMP_temperature;BMP_pressure;BME280_temperature;BME280_humidity;BME280_pressure;Samples;Min_cycle;Max_cycle;Signal;HPM_P1;HPM_P2
2021/03/04 00:01:06;;;;;;;52.50;35.98;;;;;;;5.13;94.66;100499.17;254526;1109;104306;-81
2021/03/04 00:06:07;;;;;;;63.00;41.17;;;;;;;5.10;95.62;100500.98;253936;1109;104256;-80
2021/03/04 00:11:08;;;;;;;51.90;37.25;;;;;;;5.05;94.89;100492.23;253591;1109;105768;-81
2021/03/04 00:16:09;;;;;;;53.78;37.10;;;;;;;5.05;94.46;100478.17;253222;1108;104335;-81
2021/03/04 00:21:11;;;;;;;52.98;35.03;;;;;;;5.14;94.60;100471.85;253175;1109;104638;-81
2021/03/04 00:26:12;;;;;;;57.38;37.95;;;;;;;5.03;94.81;100462.34;255703;1109;104271;-80
2021/03/04 00:31:13;;;;;;;59.03;39.45;;;;;;;4.95;94.23;100453.66;258792;1109;102994;-80
2021/03/04 00:36:14;;;;;;;51.08;34.38;;;;;;;4.92;94.39;100446.67;257045;1109;104249;-80
2021/03/04 00:41:15;;;;;;;53.73;35.03;;;;;;;4.91;94.13;100442.28;253638;1109;105064;-80
2021/03/04 00:46:16;;;;;;;58.80;39.67;;;;;;;4.88;95.18;100439.67;254019;1109;104341;-80
2021/03/04 00:51:18;;;;;;;50.90;33.67;;;;;;;4.94;94.77;100429.00;253898;1109;104323;-80
2021/03/04 00:56:19;;;;;;;46.75;31.33;;;;;;;4.97;93.82;100414.00;253985;1109;104344;-81
2021/03/04 01:01:20;;;;;;;56.68;37.00;;;;;;;4.91;94.30;100415.86;253624;1109;104341;-82
2021/03/04 01:06:21;;;;;;;46.23;33.45;;;;;;;4.93;93.73;100402.61;253209;1109;104274;-80
2021/03/04 01:11:23;;;;;;;47.85;32.75;;;;;;;4.86;94.42;100395.69;253089;1109;104428;-78
2021/03/04 01:16:24;;;;;;;49.05;33.02;;;;;;;4.93;93.99;100377.05;253643;1109;104280;-80
2021/03/04 01:21:25;;;;;;;43.30;30.45;;;;;;;4.84;94.83;100378.98;253819;1109;104313;-80
2021/03/04 01:26:26;;;;;;;46.60;27.60;;;;;;;4.94;94.27;100376.16;256886;1109;104162;-80
2021/03/04 01:31:27;;;;;;;51.63;34.48;;;;;;;4.91;94.36;100363.02;257808;1109;104236;-80
2021/03/04 01:36:29;;;;;;;46.00;32.55;;;;;;;4.89;94.22;100354.25;257272;1109;104261;-80
2021/03/04 01:41:30;;;;;;;49.00;33.38;;;;;;;4.81;94.55;100356.14;256185;1109;104265;-78
2021/03/04 01:46:32;;;;;;;49.77;32.33;;;;;;;4.76;95.58;100343.01;256124;1109;104261;-81
2021/03/04 01:51:33;;;;;;;45.98;30.20;;;;;;;4.78;95.48;100341.22;256185;1109;104437;-81
2021/03/04 01:56:34;;;;;;;46.42;31.60;;;;;;;4.73;95.78;100328.98;257815;1109;104264;-80
2021/03/04 02:01:36;;;;;;;39.78;25.65;;;;;;;4.69;96.17;100324.66;256109;1109;104399;-81
2021/03/04 02:07:05;;;;;;;35.80;21.60;;;;;;;4.75;96.09;100324.55;254305;1109;104373;-81
2021/03/04 02:12:23;;;;;;;43.70;28.38;;;;;;;4.64;95.88;100300.97;255341;1109;104634;-80
2021/03/04 02:17:29;;;;;;;41.55;27.45;;;;;;;4.62;96.52;100305.40;254726;1109;104349;-80
2021/03/04 02:22:52;;;;;;;43.97;28.67;;;;;;;4.70;96.39;100285.02;253915;1109;104253;-81
2021/03/04 02:27:55;;;;;;;42.90;27.45;;;;;;;4.65;96.89;100283.38;254414;1109;104254;-81
2021/03/04 02:33:04;;;;;;;40.65;29.63;;;;;;;4.66;97.40;100280.70;253533;1109;104280;-80
2021/03/04 02:38:10;;;;;;;40.30;27.95;;;;;;;4.79;96.00;100276.09;253336;1109;104245;-80
2021/03/04 02:43:14;;;;;;;38.95;27.50;;;;;;;4.77;95.69;100272.59;253233;1109;104338;-81
2021/03/04 02:48:18;;;;;;;39.07;25.40;;;;;;;4.70;96.66;100268.32;253218;1109;104683;-81
2021/03/04 02:53:21;;;;;;;36.00;23.42;;;;;;;4.77;96.47;100254.96;253454;1109;104293;-80
2021/03/04 02:58:23;;;;;;;40.17;26.90;;;;;;;4.89;95.70;100251.23;254242;1109;104385;-81
2021/03/04 03:03:26;;;;;;;34.83;24.50;;;;;;;5.01;95.46;100254.52;253595;1109;104338;-80
2021/03/04 03:08:27;;;;;;;41.85;28.57;;;;;;;5.03;95.52;100250.09;253139;1109;104316;-80
2021/03/04 03:13:31;;;;;;;45.23;30.08;;;;;;;4.98;95.89;100238.75;253409;1109;104705;-79
2021/03/04 03:18:33;;;;;;;41.18;27.45;;;;;;;4.93;96.94;100228.27;253393;1109;104504;-80
2021/03/04 03:23:35;;;;;;;43.08;28.20;;;;;;;4.92;96.69;100223.87;253340;1109;104254;-81
2021/03/04 03:28:38;;;;;;;43.38;29.05;;;;;;;4.89;96.44;100219.53;253238;1108;104683;-80
2021/03/04 03:33:40;;;;;;;34.90;22.73;;;;;;;4.76;96.00;100213.60;253245;1109;104759;-81
2021/03/04 03:38:42;;;;;;;41.05;26.50;;;;;;;4.78;96.85;100213.59;253242;1109;104390;-82
2021/03/04 03:43:44;;;;;;;36.48;24.67;;;;;;;4.72;97.42;100205.80;253478;1109;104220;-80
2021/03/04 03:48:46;;;;;;;43.27;29.50;;;;;;;4.68;97.40;100196.17;256265;1109;104268;-81
2021/03/04 03:53:48;;;;;;;40.63;28.20;;;;;;;4.60;98.37;100188.41;253543;1109;104344;-81
2021/03/04 03:58:50;;;;;;;38.67;26.70;;;;;;;4.62;97.91;100174.27;253310;1109;104769;-81
2021/03/04 04:03:52;;;;;;;40.27;27.90;;;;;;;4.76;96.85;100166.06;253539;1108;104267;-81
2021/03/04 04:08:54;;;;;;;44.80;30.32;;;;;;;4.90;95.50;100171.09;253325;1109;104498;-81
2021/03/04 04:13:57;;;;;;;43.35;27.82;;;;;;;4.87;95.90;100171.13;256131;1109;104258;-80
2021/03/04 04:18:58;;;;;;;36.80;24.77;;;;;;;4.85;96.29;100162.39;253908;1109;104267;-82
2021/03/04 04:24:00;;;;;;;41.10;29.57;;;;;;;4.81;96.61;100159.84;253315;1109;104348;-81
2021/03/04 04:29:01;;;;;;;31.87;23.13;;;;;;;4.67;96.96;100165.38;253408;1109;104686;-80
2021/03/04 04:34:02;;;;;;;43.25;28.00;;;;;;;4.60;97.64;100157.58;253575;1109;104412;-81
2021/03/04 04:39:04;;;;;;;36.53;25.52;;;;;;;4.67;96.83;100141.62;253194;1109;104259;-80
2021/03/04 04:44:05;;;;;;;40.05;29.18;;;;;;;4.62;98.28;100134.67;253566;1109;104261;-80
2021/03/04 04:49:06;;;;;;;41.50;29.60;;;;;;;4.56;97.92;100133.91;253571;1109;104667;-80
2021/03/04 04:54:08;;;;;;;41.13;27.30;;;;;;;4.56;97.98;100134.80;253718;1109;104381;-80
2021/03/04 04:59:09;;;;;;;39.75;27.58;;;;;;;4.51;98.31;100141.05;253197;1109;104397;-81
2021/03/04 05:04:10;;;;;;;38.50;26.82;;;;;;;4.43;98.92;100131.51;253492;1108;104386;-80
2021/03/04 05:09:12;;;;;;;36.97;26.00;;;;;;;4.37;99.54;100123.70;252823;1109;114973;-76
2021/03/04 05:14:13;;;;;;;42.15;28.62;;;;;;;4.42;99.36;100121.84;252437;1109;114674;-78
2021/03/04 05:19:14;;;;;;;37.78;26.85;;;;;;;4.41;99.42;100120.09;252656;1108;114601;-79
2021/03/04 05:24:15;;;;;;;36.77;25.25;;;;;;;4.45;100.00;100107.72;252892;1108;114630;-87
2021/03/04 05:29:17;;;;;;;42.27;29.20;;;;;;;4.49;99.88;100093.58;253303;1109;114953;-78
2021/03/04 05:34:19;;;;;;;29.90;21.00;;;;;;;4.44;100.00;100087.52;252874;1109;114807;-81
2021/03/04 05:39:20;;;;;;;40.45;27.73;;;;;;;4.43;100.00;100096.34;252502;1109;115101;-77
2021/03/04 05:44:23;;;;;;;33.95;25.75;;;;;;;4.37;100.00;100092.04;252275;1108;115118;-75
2021/03/04 05:49:30;;;;;;;40.97;27.73;;;;;;;4.34;100.00;100085.95;252819;1109;114879;-80
2021/03/04 05:54:35;;;;;;;41.30;26.50;;;;;;;4.37;100.00;100085.91;252865;1109;114960;-74
2021/03/04 05:59:37;;;;;;;;;;;;;;;4.27;100.00;100099.27;252584;1109;114954;-76
2021/03/04 06:04:38;;;;;;;39.10;27.00;;;;;;;4.26;100.00;100094.88;252836;1109;104377;-78
2021/03/04 06:09:39;;;;;;;42.00;27.80;;;;;;;4.36;100.00;100090.30;254804;1109;114707;-75
2021/03/04 06:14:41;;;;;;;38.95;26.60;;;;;;;4.36;100.00;100097.36;254366;1109;104373;-77
2021/03/04 06:20:17;;;;;;;37.05;24.82;;;;;;;4.32;100.00;100099.19;253018;1108;104297;-78
2021/03/04 06:25:21;;;;;;;39.23;27.22;;;;;;;4.37;100.00;100092.04;253030;1109;104334;-78
2021/03/04 06:30:23;;;;;;;37.67;26.23;;;;;;;4.43;100.00;100102.47;253211;1109;104338;-77
2021/03/04 06:35:33;;;;;;;32.60;22.87;;;;;;;4.56;100.00;100103.11;253080;1109;104290;-74
2021/03/04 06:40:34;;;;;;;35.28;22.77;;;;;;;4.66;100.00;100094.98;253237;1109;108041;-77
2021/03/04 06:45:37;;;;;;;36.90;23.15;;;;;;;4.67;100.00;100094.09;253396;1108;104324;-76
2021/03/04 06:50:41;;;;;;;36.63;27.10;;;;;;;4.78;100.00;100113.24;253384;1109;104262;-76
2021/03/04 06:55:53;;;;;;;34.08;22.95;;;;;;;4.74;100.00;100100.98;253451;1109;104353;-76
2021/03/04 07:01:12;;;;;;;32.85;22.42;;;;;;;4.75;100.00;100108.01;253332;1109;119263;-78
2021/03/04 07:06:15;;;;;;;42.53;28.47;;;;;;;4.82;100.00;100099.06;253255;1109;104890;-75
2021/03/04 07:11:24;;;;;;;33.40;22.35;;;;;;;4.80;100.00;100111.41;253226;1109;104382;-77
2021/03/04 07:16:33;;;;;;;43.02;28.10;;;;;;;4.76;100.00;100105.33;253718;1109;104284;-75
2021/03/04 07:21:39;;;;;;;36.53;25.80;;;;;;;4.79;100.00;100109.70;253446;1109;104268;-76
2021/03/04 07:26:40;;;;;;;38.25;27.00;;;;;;;4.84;100.00;100102.55;253279;1109;104315;-75
2021/03/04 07:31:43;;;;;;;39.13;26.73;;;;;;;4.81;100.00;100112.30;253428;1109;104351;-77
2021/03/04 07:36:48;;;;;;;44.07;27.70;;;;;;;4.76;100.00;100112.39;253361;1109;104393;-76
2021/03/04 07:41:49;;;;;;;38.33;27.52;;;;;;;4.77;100.00;100109.72;253361;1109;112638;-77
2021/03/04 07:46:53;;;;;;;33.23;23.18;;;;;;;4.83;100.00;100106.09;253301;1108;104316;-77
2021/03/04 07:52:27;;;;;;;37.03;26.77;;;;;;;4.88;100.00;100104.20;253201;1109;104380;-78
2021/03/04 07:57:29;;;;;;;33.10;22.80;;;;;;;4.75;100.00;100113.29;253013;1109;104258;-77
2021/03/04 08:02:37;;;;;;;34.98;26.07;;;;;;;4.87;100.00;100115.67;252897;1109;104310;-77
2021/03/04 08:07:45;;;;;;;38.28;28.07;;;;;;;4.81;100.00;100115.80;253198;1108;104268;-77
2021/03/04 08:12:49;;;;;;;35.35;23.27;;;;;;;4.73;100.00;100110.69;253650;1109;104370;-77
2021/03/04 08:17:50;;;;;;;36.43;25.10;;;;;;;4.74;100.00;100115.08;253248;1109;104291;-76
2021/03/04 08:22:55;;;;;;;38.20;27.22;;;;;;;4.70;100.00;100123.09;253091;1109;104393;-78
2021/03/04 08:28:02;;;;;;;33.65;23.75;;;;;;;4.56;100.00;100124.23;253467;1109;104249;-77
2021/03/04 08:33:13;;;;;;;37.78;27.40;;;;;;;4.62;100.00;100123.22;253270;1109;111912;-76
2021/03/04 08:38:17;;;;;;;39.92;28.65;;;;;;;4.61;100.00;100151.41;253505;1109;104670;-77
2021/03/04 08:43:25;;;;;;;33.93;24.87;;;;;;;4.69;100.00;100134.55;254165;1109;119069;-77
2021/03/04 08:48:27;;;;;;;39.48;26.62;;;;;;;4.70;100.00;100146.85;253913;1109;104440;-76
2021/03/04 08:53:30;;;;;;;38.10;25.15;;;;;;;4.75;100.00;100134.41;253292;1109;104275;-76
2021/03/04 08:58:39;;;;;;;40.80;31.57;;;;;;;4.71;100.00;100148.59;253381;1109;105008;-76
2021/03/04 09:03:43;;;;;;;36.28;25.77;;;;;;;4.57;100.00;100152.37;253403;1109;104265;-77
2021/03/04 09:08:50;;;;;;;41.77;30.48;;;;;;;4.61;100.00;100153.19;254120;1108;104690;-75
2021/03/04 09:13:51;;;;;;;39.53;31.90;;;;;;;4.53;100.00;100157.74;253393;1109;104338;-76
2021/03/04 09:18:52;;;;;;;39.10;28.80;;;;;;;4.43;100.00;100167.60;253395;1109;104239;-77
2021/03/04 09:23:54;;;;;;;42.20;32.23;;;;;;;4.39;100.00;100164.15;253343;1109;104287;-77
2021/03/04 09:28:55;;;;;;;38.93;29.90;;;;;;;4.46;100.00;100159.61;253840;1108;104245;-78
2021/03/04 09:34:02;;;;;;;36.40;26.73;;;;;;;4.49;100.00;100159.56;253331;1109;104283;-75
2021/03/04 09:39:03;;;;;;;37.88;25.60;;;;;;;4.34;100.00;100173.04;256106;1108;104700;-77
2021/03/04 09:44:06;;;;;;;34.33;27.58;;;;;;;4.42;100.00;100173.77;258705;1109;105005;-76
2021/03/04 09:49:12;;;;;;;48.17;36.05;;;;;;;4.51;100.00;100157.75;259034;1107;104274;-76
2021/03/04 09:54:28;;;;;;;40.60;30.92;;;;;;;4.45;100.00;100173.70;258586;1109;104169;-76
2021/03/04 09:59:30;;;;;;;46.08;33.75;;;;;;;4.35;100.00;100174.78;258842;1109;104224;-75
2021/03/04 10:04:31;;;;;;;43.52;33.88;;;;;;;4.40;100.00;100179.09;258194;1109;104233;-75
2021/03/04 10:09:32;;;;;;;46.13;36.03;;;;;;;4.44;100.00;100182.55;257687;1109;104227;-76
2021/03/04 10:14:42;;;;;;;50.63;36.15;;;;;;;4.41;100.00;100183.44;255482;1109;104906;-76
2021/03/04 10:19:44;;;;;;;36.88;30.68;;;;;;;4.33;100.00;100189.77;256525;1109;105194;-77
2021/03/04 10:24:45;;;;;;;41.53;32.73;;;;;;;4.17;100.00;100197.94;257469;1109;104065;-75
2021/03/04 10:29:46;;;;;;;42.55;32.55;;;;;;;4.12;100.00;100199.79;256738;1109;104335;-77
2021/03/04 10:34:47;;;;;;;40.23;31.55;;;;;;;4.12;100.00;100191.88;254618;1109;104287;-78
2021/03/04 10:39:49;;;;;;;38.58;31.55;;;;;;;4.14;100.00;100205.92;253761;1108;104310;-78
2021/03/04 10:44:54;;;;;;;42.13;33.10;;;;;;;3.95;100.00;100198.28;253597;1109;105037;-79
2021/03/04 10:49:56;;;;;;;46.28;33.28;;;;;;;4.08;100.00;100201.61;253701;1109;104344;-77
2021/03/04 10:54:58;;;;;;;40.98;30.32;;;;;;;4.03;100.00;100202.56;253647;1109;104335;-77
2021/03/04 11:00:00;;;;;;;41.28;31.42;;;;;;;3.92;100.00;100208.91;253836;1108;104347;-77
2021/03/04 11:05:02;;;;;;;41.45;30.45;;;;;;;3.79;100.00;100199.44;255026;1107;104268;-76
2021/03/04 11:10:06;;;;;;;40.73;31.90;;;;;;;3.72;100.00;100201.28;254300;1109;104680;-77
2021/03/04 11:15:08;;;;;;;30.23;22.80;;;;;;;3.71;100.00;100196.05;253683;1108;104255;-77
2021/03/04 11:20:10;;;;;;;35.60;28.12;;;;;;;3.69;100.00;100203.98;254111;1109;104287;-78
2021/03/04 11:25:12;;;;;;;39.50;29.20;;;;;;;3.75;100.00;100205.64;255138;1109;104332;-77
2021/03/04 11:30:14;;;;;;;36.23;27.15;;;;;;;3.49;100.00;100191.08;254467;1109;104339;-78
2021/03/04 11:35:15;;;;;;;34.27;25.73;;;;;;;3.71;100.00;100196.05;253720;1108;104348;-77
2021/03/04 11:40:17;;;;;;;38.13;28.38;;;;;;;3.67;100.00;100190.80;253995;1109;104644;-79
2021/03/04 11:45:18;;;;;;;43.73;29.15;;;;;;;3.59;100.00;100197.98;254122;1109;104284;-77
2021/03/04 11:50:19;;;;;;;42.25;29.48;;;;;;;3.74;100.00;100190.70;254950;1109;104261;-78
2021/03/04 11:55:21;;;;;;;38.48;27.75;;;;;;;3.76;100.00;100183.66;253848;1109;104347;-79
2021/03/04 12:00:22;;;;;;;40.85;27.62;;;;;;;3.54;100.00;100177.84;258209;1109;104163;-78
2021/03/04 12:05:23;;;;;;;42.13;29.12;;;;;;;3.54;100.00;100183.97;258366;1109;104169;-78
2021/03/04 12:10:25;;;;;;;49.48;32.13;;;;;;;3.57;100.00;100196.23;256215;1109;104534;-77
2021/03/04 12:15:26;;;;;;;39.10;27.37;;;;;;;3.50;100.00;100192.83;253685;1109;104348;-78
2021/03/04 12:20:27;;;;;;;39.90;29.18;;;;;;;3.90;100.00;100188.73;253965;1109;104657;-78
2021/03/04 12:25:29;;;;;;;39.33;26.40;;;;;;;3.63;100.00;100185.63;254027;1109;104370;-77
2021/03/04 12:30:30;;;;;;;36.20;24.35;;;;;;;3.96;100.00;100181.57;254157;1109;104396;-77
2021/03/04 12:35:32;;;;;;;31.50;22.07;;;;;;;6.37;91.75;100159.80;254062;1109;104521;-78
2021/03/04 12:40:36;;;;;;;32.60;23.60;;;;;;;5.21;93.49;100164.29;253467;1109;104342;-78
2021/03/04 12:45:37;;;;;;;32.67;24.15;;;;;;;4.50;98.16;100161.31;253264;1109;104253;-77
2021/03/04 12:50:39;;;;;;;37.33;25.20;;;;;;;4.19;99.88;100158.36;253650;1109;104331;-78
2021/03/04 12:55:40;;;;;;;34.65;22.75;;;;;;;4.17;99.50;100154.87;253604;1108;104341;-78
2021/03/04 13:00:42;;;;;;;35.90;23.90;;;;;;;4.09;100.00;100160.26;253785;1109;104670;-78
2021/03/04 13:05:44;;;;;;;31.05;22.93;;;;;;;3.99;99.04;100154.27;254789;1109;104246;-78
2021/03/04 13:10:45;;;;;;;33.73;22.82;;;;;;;3.88;99.94;100156.23;253968;1109;104454;-77
2021/03/04 13:15:47;;;;;;;33.87;24.10;;;;;;;3.69;99.94;100139.82;253813;1109;104316;-79
2021/03/04 13:20:48;;;;;;;28.73;20.50;;;;;;;3.50;100.00;100145.39;253538;1107;104268;-78
2021/03/04 13:25:49;;;;;;;34.40;22.85;;;;;;;3.51;100.00;100152.41;254084;1109;104239;-79
2021/03/04 13:30:50;;;;;;;37.17;22.10;;;;;;;3.77;100.00;100153.76;256257;1109;104347;-77
2021/03/04 13:35:52;;;;;;;37.03;23.50;;;;;;;3.77;99.56;100167.80;256471;1109;104153;-78
2021/03/04 13:40:54;;;;;;;36.75;26.45;;;;;;;3.62;100.00;100158.38;255748;1109;104262;-77
2021/03/04 13:45:56;;;;;;;37.35;24.70;;;;;;;3.49;100.00;100164.72;254214;1108;104328;-79
2021/03/04 13:50:58;;;;;;;42.00;26.00;;;;;;;3.60;100.00;100168.06;254584;1109;104431;-77
2021/03/04 13:55:59;;;;;;;38.70;25.85;;;;;;;3.55;100.00;100167.27;254877;1109;104345;-77
2021/03/04 14:01:00;;;;;;;38.70;24.43;;;;;;;3.40;100.00;100164.84;254778;1109;104268;-77
2021/03/04 14:06:02;;;;;;;34.15;22.48;;;;;;;3.24;100.00;100158.92;253607;1109;104341;-79
2021/03/04 14:11:03;;;;;;;38.15;23.12;;;;;;;3.28;100.00;100160.61;253414;1109;104341;-75
2021/03/04 14:16:05;;;;;;;28.92;21.35;;;;;;;3.32;100.00;100162.33;253831;1109;104386;-77
2021/03/04 14:21:06;;;;;;;35.55;24.07;;;;;;;3.23;100.00;100165.97;254052;1109;104287;-78
2021/03/04 14:26:07;;;;;;;32.93;23.53;;;;;;;3.25;100.00;100165.94;253955;1109;104284;-78
2021/03/04 14:31:08;;;;;;;40.33;24.95;;;;;;;3.15;100.00;100165.20;253834;1109;104249;-78
2021/03/04 14:36:10;;;;;;;32.70;20.25;;;;;;;3.08;99.65;100179.34;253709;1109;104316;-78
2021/03/04 14:41:11;;;;;;;35.27;23.73;;;;;;;3.03;100.00;100172.34;254240;1109;104361;-78
2021/03/04 14:46:12;;;;;;;34.13;23.53;;;;;;;3.09;100.00;100154.75;253718;1109;104645;-78
2021/03/04 14:51:14;;;;;;;38.88;22.32;;;;;;;2.93;100.00;100162.84;253637;1109;104909;-77
2021/03/04 14:56:15;;;;;;;25.33;19.67;;;;;;;2.96;100.00;100170.68;253569;1109;104836;-78
2021/03/04 15:01:16;;;;;;;23.20;16.93;;;;;;;2.86;97.68;100158.53;253497;1109;104629;-78
2021/03/04 15:06:19;;;;;;;19.40;14.15;;;;;;;2.79;97.63;100167.39;253347;1107;104322;-77
2021/03/04 15:11:20;;;;;;;22.60;13.98;;;;;;;2.53;99.06;100171.20;253891;1109;104249;-78
2021/03/04 15:16:21;;;;;;;18.40;12.00;;;;;;;2.67;97.70;100177.19;253874;1109;104261;-79
2021/03/04 15:21:23;;;;;;;17.07;12.45;;;;;;;2.81;96.88;100170.89;253827;1109;104680;-80
2021/03/04 15:26:24;;;;;;;14.00;10.98;;;;;;;2.58;97.78;100173.75;253741;1109;104300;-77
2021/03/04 15:31:25;;;;;;;26.85;18.62;;;;;;;2.41;99.27;100171.30;253732;1109;104323;-79
2021/03/04 15:36:27;;;;;;;14.93;10.20;;;;;;;2.52;98.72;100161.55;253462;1109;104341;-76
2021/03/04 15:41:28;;;;;;;9.53;7.17;;;;;;;2.40;96.60;100165.18;253570;1108;104344;-77
2021/03/04 15:46:30;;;;;;;11.63;7.47;;;;;;;2.33;97.54;100164.35;253712;1109;104377;-78
2021/03/04 15:51:31;;;;;;;16.42;11.00;;;;;;;2.31;97.79;100168.78;253678;1109;104651;-77
2021/03/04 15:56:33;;;;;;;13.68;8.93;;;;;;;2.36;98.41;100169.59;253984;1109;104418;-77
2021/03/04 16:01:34;;;;;;;10.25;7.42;;;;;;;2.23;98.09;100167.98;253829;1109;104622;-78
2021/03/04 16:06:35;;;;;;;9.65;7.90;;;;;;;2.28;97.98;100171.43;253740;1109;105063;-77
2021/03/04 16:11:37;;;;;;;14.20;8.83;;;;;;;2.23;99.13;100179.36;253486;1109;104338;-79
2021/03/04 16:16:38;;;;;;;8.50;5.90;;;;;;;2.14;99.91;100187.35;253031;1109;104297;-77
2021/03/04 16:21:39;;;;;;;12.45;9.50;;;;;;;2.20;100.00;100184.66;252700;1109;104371;-77
2021/03/04 16:26:54;;;;;;;10.32;7.42;;;;;;;2.14;100.00;100191.72;253092;1109;104267;-79
2021/03/04 16:31:57;;;;;;;16.07;9.48;;;;;;;2.12;100.00;100183.86;253309;1109;104316;-77
2021/03/04 16:36:58;;;;;;;11.68;8.48;;;;;;;2.20;99.60;100197.81;253406;1109;104980;-78
2021/03/04 16:42:00;;;;;;;11.12;8.38;;;;;;;2.14;98.71;100195.23;252785;1109;114455;-80
2021/03/04 16:47:02;;;;;;;12.05;8.43;;;;;;;2.19;97.56;100200.44;253018;1108;114614;-75
2021/03/04 16:52:04;;;;;;;10.40;8.73;;;;;;;2.18;98.08;100206.61;253659;1108;114365;-79
2021/03/04 16:57:05;;;;;;;11.10;8.45;;;;;;;2.17;99.64;100205.72;253406;1109;114880;-76
2021/03/04 17:02:08;;;;;;;12.00;8.90;;;;;;;2.12;100.00;100198.73;252724;1109;114871;-75
2021/03/04 17:07:09;;;;;;;11.90;10.00;;;;;;;2.05;100.00;100201.42;252743;1109;114625;-78
2021/03/04 17:12:10;;;;;;;14.30;10.85;;;;;;;2.18;100.00;100203.98;252328;1109;114771;-77
2021/03/04 17:17:12;;;;;;;17.30;13.72;;;;;;;2.41;99.57;100200.23;252532;1109;115031;-77
2021/03/04 17:22:13;;;;;;;16.27;13.93;;;;;;;2.32;98.98;100188.95;252942;1108;114702;-80
2021/03/04 17:27:14;;;;;;;14.25;12.07;;;;;;;2.37;99.10;100186.24;254144;1109;114709;-77
2021/03/04 17:32:16;;;;;;;17.82;13.05;;;;;;;2.32;98.65;100186.31;254671;1109;114774;-82
2021/03/04 17:37:17;;;;;;;16.63;12.97;;;;;;;2.21;98.56;100204.82;252920;1109;114619;-79
2021/03/04 17:42:20;;;;;;;14.07;11.78;;;;;;;2.13;98.53;100203.13;252821;1109;114632;-76
2021/03/04 17:47:21;;;;;;;17.02;14.80;;;;;;;2.16;99.10;100195.22;252807;1109;114960;-77
2021/03/04 17:52:23;;;;;;;18.50;15.13;;;;;;;2.14;99.05;100189.98;253016;1112;114712;-78
2021/03/04 17:57:24;;;;;;;18.47;13.53;;;;;;;2.00;99.53;100190.08;252702;1112;114678;-76
2021/03/04 18:02:27;;;;;;;12.23;10.53;;;;;;;2.02;100.00;100190.95;252795;1109;114671;-77
2021/03/04 18:07:28;;;;;;;21.97;14.85;;;;;;;1.90;100.00;100185.80;252657;1109;114829;-77
2021/03/04 18:12:29;;;;;;;22.32;15.88;;;;;;;1.94;100.00;100187.51;252695;1109;115174;-77
2021/03/04 18:17:31;;;;;;;20.97;16.33;;;;;;;1.96;100.00;100185.75;252412;1109;115104;-76
2021/03/04 18:22:33;;;;;;;17.53;12.90;;;;;;;1.93;100.00;100190.16;252725;1109;115375;-75
2021/03/04 18:27:34;;;;;;;17.32;13.50;;;;;;;1.79;100.00;100182.36;252290;1112;115234;-79
2021/03/04 18:32:37;;;;;;;17.05;12.95;;;;;;;1.86;100.00;100176.17;252698;1112;114773;-78
2021/03/04 18:37:38;;;;;;;20.68;17.37;;;;;;;2.00;100.00;100176.08;252709;1109;116359;-79
2021/03/04 18:42:40;;;;;;;18.57;15.38;;;;;;;2.05;100.00;100175.13;252642;1112;114969;-79
2021/03/04 18:47:45;;;;;;;21.02;16.35;;;;;;;1.91;100.00;100171.74;252711;1112;114882;-81
2021/03/04 18:52:46;;;;;;;22.07;16.40;;;;;;;1.94;100.00;100182.25;252645;1111;115074;-78
2021/03/04 18:57:48;;;;;;;20.55;14.50;;;;;;;1.85;100.00;100177.05;252459;1111;114782;-79
2021/03/04 19:02:49;;;;;;;17.12;14.05;;;;;;;1.88;100.00;100177.04;252557;1112;114871;-80
2021/03/04 19:07:51;;;;;;;22.22;17.60;;;;;;;1.93;100.00;100169.13;252439;1112;114838;-78
2021/03/04 19:12:52;;;;;;;23.07;17.37;;;;;;;1.94;100.00;100176.98;253642;1110;114791;-78
2021/03/04 19:17:53;;;;;;;24.10;17.25;;;;;;;1.89;100.00;100187.53;253577;1112;206073;-78
2021/03/04 19:22:54;;;;;;;22.17;16.60;;;;;;;1.93;100.00;100183.13;253624;1111;116692;-78
2021/03/04 19:27:56;;;;;;;25.00;18.67;;;;;;;1.88;100.00;100177.90;253689;1111;116437;-78
2021/03/04 19:32:57;;;;;;;22.00;15.93;;;;;;;1.89;100.00;100178.79;254031;1111;117243;-78
2021/03/04 19:37:58;;;;;;;18.13;14.47;;;;;;;1.81;100.00;100181.46;253557;1110;116137;-78
2021/03/04 19:42:59;;;;;;;18.23;15.20;;;;;;;1.56;100.00;100180.75;253140;1111;116150;-79
2021/03/04 19:48:01;;;;;;;26.80;17.50;;;;;;;1.43;100.00;100178.21;253235;1111;116407;-78
2021/03/04 19:53:03;;;;;;;15.18;10.85;;;;;;;1.46;100.00;100200.10;252609;1112;116394;-79
2021/03/04 19:58:04;;;;;;;23.75;17.00;;;;;;;1.52;100.00;100189.55;252764;1110;116189;-78
2021/03/04 20:03:06;;;;;;;23.80;18.10;;;;;;;1.57;100.00;100190.39;252484;1111;117721;-77
2021/03/04 20:08:08;;;;;;;22.55;16.87;;;;;;;1.34;100.00;100183.51;252375;1112;116502;-77
2021/03/04 20:13:09;;;;;;;18.00;14.00;;;;;;;1.27;100.00;100169.55;252588;1112;116070;-77
2021/03/04 20:18:10;;;;;;;20.63;16.57;;;;;;;1.46;100.00;100168.58;252625;1109;116571;-78
2021/03/04 20:23:12;;;;;;;22.85;17.12;;;;;;;1.44;100.00;100171.22;252436;1109;116124;-77
2021/03/04 20:28:16;;;;;;;21.90;17.03;;;;;;;1.61;100.00;100173.73;252411;1109;116146;-77
2021/03/04 20:33:17;;;;;;;20.77;16.20;;;;;;;1.49;100.00;100179.94;252544;1109;115982;-78
2021/03/04 20:38:19;;;;;;;22.83;17.03;;;;;;;1.52;100.00;100182.53;252504;1109;114744;-78
2021/03/04 20:43:21;;;;;;;23.40;18.52;;;;;;;1.54;100.00;100193.91;252648;1109;116246;-79
2021/03/04 20:48:22;;;;;;;20.43;16.42;;;;;;;1.46;100.00;100200.10;253141;1109;116366;-78
2021/03/04 20:53:23;;;;;;;20.35;15.75;;;;;;;1.54;100.00;100198.31;253319;1109;104316;-79
2021/03/04 20:58:25;;;;;;;21.30;15.43;;;;;;;1.60;100.00;100203.52;253503;1108;104424;-80
2021/03/04 21:03:27;;;;;;;20.32;16.05;;;;;;;1.51;100.00;100204.45;255065;1109;104267;-79
2021/03/04 21:08:29;;;;;;;21.73;15.88;;;;;;;1.45;100.00;100193.95;253655;1109;104309;-80
2021/03/04 21:13:30;;;;;;;21.73;15.58;;;;;;;1.59;100.00;100186.00;254064;1109;105058;-79
2021/03/04 21:18:32;;;;;;;20.90;16.97;;;;;;;1.55;100.00;100189.55;254288;1109;104341;-80
2021/03/04 21:23:33;;;;;;;23.13;17.07;;;;;;;1.43;100.00;100190.48;253383;1108;105842;-80
2021/03/04 21:28:34;;;;;;;27.32;19.77;;;;;;;1.42;100.00;100193.98;254033;1109;104380;-82
2021/03/04 21:33:36;;;;;;;23.38;17.20;;;;;;;1.49;100.00;100194.81;253860;1109;104357;-79
2021/03/04 21:38:37;;;;;;;21.73;16.15;;;;;;;1.53;100.00;100196.56;256488;1109;104236;-80
2021/03/04 21:43:39;;;;;;;25.77;17.85;;;;;;;1.52;100.00;100194.81;255838;1109;104246;-77
2021/03/04 21:48:40;;;;;;;25.08;18.12;;;;;;;1.53;100.00;100201.81;253412;1108;104344;-79
2021/03/04 21:53:42;;;;;;;25.27;18.42;;;;;;;1.58;100.00;100200.02;253221;1108;104238;-80
2021/03/04 21:58:43;;;;;;;30.50;20.13;;;;;;;1.67;100.00;100206.96;253223;1109;104319;-80
2021/03/04 22:03:44;;;;;;;26.83;18.53;;;;;;;1.60;100.00;100208.77;253369;1108;104354;-80
2021/03/04 22:08:46;;;;;;;24.00;18.05;;;;;;;1.65;100.00;100212.23;253408;1109;104248;-81
2021/03/04 22:13:47;;;;;;;22.73;14.87;;;;;;;1.74;100.00;100212.19;253446;1109;104300;-82
2021/03/04 22:18:48;;;;;;;21.35;14.83;;;;;;;1.69;100.00;100220.97;254081;1109;104454;-78
2021/03/04 22:23:50;;;;;;;17.62;12.55;;;;;;;1.59;100.00;100225.41;253676;1109;105120;-81
2021/03/04 22:28:51;;;;;;;15.23;9.97;;;;;;;1.55;100.00;100226.33;253404;1109;104341;-79